sensor_id;sensor_type;location;lat;lon;timestamp;temperature;humidity
12557;DHT22;6344;49.932;8.308;2022-08-19T00:00:07;21.70;99.90
12557;DHT22;6344;49.932;8.308;2022-08-19T00:02:34;21.80;99.90
12557;DHT22;6344;49.932;8.308;2022-08-19T00:05:03;21.70;99.90
12557;DHT22;6344;49.932;8.308;2022-08-19T00:07:30;21.80;99.90
12557;DHT22;6344;49.932;8.308;2022-08-19T00:09:56;21.80;99.90
12557;DHT22;6344;49.932;8.308;2022-08-19T00:12:23;21.80;99.90
12557;DHT22;6344;49.932;8.308;2022-08-19T00:14:50;21.90;99.90
12557;DHT22;6344;49.932;8.308;2022-08-19T00:17:20;21.80;99.90
12557;DHT22;6344;49.932;8.308;2022-08-19T00:19:46;22.00;99.90
12557;DHT22;6344;49.932;8.308;2022-08-19T00:22:13;21.90;99.90
12557;DHT22;6344;49.932;8.308;2022-08-19T00:24:41;21.80;99.90
12557;DHT22;6344;49.932;8.308;2022-08-19T00:27:09;21.80;99.90
12557;DHT22;6344;49.932;8.308;2022-08-19T00:29:35;21.80;99.90
12557;DHT22;6344;49.932;8.308;2022-08-19T00:32:03;21.70;99.90
12557;DHT22;6344;49.932;8.308;2022-08-19T00:34:31;21.70;99.90
12557;DHT22;6344;49.932;8.308;2022-08-19T00:36:58;21.70;99.90
12557;DHT22;6344;49.932;8.308;2022-08-19T00:39:25;21.70;99.90
12557;DHT22;6344;49.932;8.308;2022-08-19T00:41:52;21.80;99.90
12557;DHT22;6344;49.932;8.308;2022-08-19T00:44:21;21.70;99.90
12557;DHT22;6344;49.932;8.308;2022-08-19T00:46:50;21.60;99.90
12557;DHT22;6344;49.932;8.308;2022-08-19T00:49:20;21.70;99.90
12557;DHT22;6344;49.932;8.308;2022-08-19T00:51:53;21.80;99.90
12557;DHT22;6344;49.932;8.308;2022-08-19T00:54:20;21.70;99.90
12557;DHT22;6344;49.932;8.308;2022-08-19T00:56:48;21.70;99.90
12557;DHT22;6344;49.932;8.308;2022-08-19T00:59:17;21.60;99.90
12557;DHT22;6344;49.932;8.308;2022-08-19T01:01:46;21.70;99.90
12557;DHT22;6344;49.932;8.308;2022-08-19T01:04:13;21.60;99.90
12557;DHT22;6344;49.932;8.308;2022-08-19T01:06:40;21.50;99.90
12557;DHT22;6344;49.932;8.308;2022-08-19T01:09:09;21.50;99.90
12557;DHT22;6344;49.932;8.308;2022-08-19T01:11:40;21.50;99.90
12557;DHT22;6344;49.932;8.308;2022-08-19T01:14:08;21.50;99.90
12557;DHT22;6344;49.932;8.308;2022-08-19T01:16:36;21.50;99.90
12557;DHT22;6344;49.932;8.308;2022-08-19T01:19:10;21.40;99.90
12557;DHT22;6344;49.932;8.308;2022-08-19T01:25:03;21.50;99.90
12557;DHT22;6344;49.932;8.308;2022-08-19T01:27:37;21.50;99.90
12557;DHT22;6344;49.932;8.308;2022-08-19T01:30:05;21.50;99.90
12557;DHT22;6344;49.932;8.308;2022-08-19T01:32:32;21.50;99.90
12557;DHT22;6344;49.932;8.308;2022-08-19T01:34:59;21.60;99.90
12557;DHT22;6344;49.932;8.308;2022-08-19T01:37:27;21.50;99.90
12557;DHT22;6344;49.932;8.308;2022-08-19T01:39:54;21.50;99.90
12557;DHT22;6344;49.932;8.308;2022-08-19T01:42:22;21.50;99.90
12557;DHT22;6344;49.932;8.308;2022-08-19T01:44:49;21.50;99.90
12557;DHT22;6344;49.932;8.308;2022-08-19T01:47:16;21.50;99.90
12557;DHT22;6344;49.932;8.308;2022-08-19T01:49:42;21.40;99.90
12557;DHT22;6344;49.932;8.308;2022-08-19T01:52:09;21.50;99.90
12557;DHT22;6344;49.932;8.308;2022-08-19T01:54:36;21.40;99.90
12557;DHT22;6344;49.932;8.308;2022-08-19T01:57:06;21.40;99.90
12557;DHT22;6344;49.932;8.308;2022-08-19T01:59:34;21.50;99.90
12557;DHT22;6344;49.932;8.308;2022-08-19T02:02:03;21.40;99.90
12557;DHT22;6344;49.932;8.308;2022-08-19T02:04:32;21.40;99.90
12557;DHT22;6344;49.932;8.308;2022-08-19T02:06:59;21.30;99.90
12557;DHT22;6344;49.932;8.308;2022-08-19T02:09:26;21.40;99.90
12557;DHT22;6344;49.932;8.308;2022-08-19T02:11:52;21.40;99.90
12557;DHT22;6344;49.932;8.308;2022-08-19T02:14:19;21.40;99.90
12557;DHT22;6344;49.932;8.308;2022-08-19T02:16:47;21.40;99.90
12557;DHT22;6344;49.932;8.308;2022-08-19T02:19:14;21.40;99.90
12557;DHT22;6344;49.932;8.308;2022-08-19T02:21:41;21.40;99.90
12557;DHT22;6344;49.932;8.308;2022-08-19T02:24:09;21.40;99.90
12557;DHT22;6344;49.932;8.308;2022-08-19T02:26:35;21.40;99.90
12557;DHT22;6344;49.932;8.308;2022-08-19T02:29:02;21.40;99.90
12557;DHT22;6344;49.932;8.308;2022-08-19T02:31:29;21.40;99.90
12557;DHT22;6344;49.932;8.308;2022-08-19T02:33:57;21.40;99.90
12557;DHT22;6344;49.932;8.308;2022-08-19T02:36:25;21.40;99.90
12557;DHT22;6344;49.932;8.308;2022-08-19T02:38:53;21.40;99.90
12557;DHT22;6344;49.932;8.308;2022-08-19T02:41:22;21.40;99.90
12557;DHT22;6344;49.932;8.308;2022-08-19T02:43:49;21.50;99.90
12557;DHT22;6344;49.932;8.308;2022-08-19T02:46:19;21.40;99.90
12557;DHT22;6344;49.932;8.308;2022-08-19T02:48:47;21.40;99.90
12557;DHT22;6344;49.932;8.308;2022-08-19T02:51:20;21.40;99.90
12557;DHT22;6344;49.932;8.308;2022-08-19T02:53:48;21.40;99.90
12557;DHT22;6344;49.932;8.308;2022-08-19T02:56:14;21.40;99.90
12557;DHT22;6344;49.932;8.308;2022-08-19T02:58:41;21.40;99.90
12557;DHT22;6344;49.932;8.308;2022-08-19T03:01:09;21.40;99.90
12557;DHT22;6344;49.932;8.308;2022-08-19T03:03:36;21.30;99.90
12557;DHT22;6344;49.932;8.308;2022-08-19T03:06:06;21.20;99.90
12557;DHT22;6344;49.932;8.308;2022-08-19T03:08:35;21.20;99.90
12557;DHT22;6344;49.932;8.308;2022-08-19T03:11:02;21.30;99.90
12557;DHT22;6344;49.932;8.308;2022-08-19T03:13:28;21.30;99.90
12557;DHT22;6344;49.932;8.308;2022-08-19T03:15:55;21.20;99.90
12557;DHT22;6344;49.932;8.308;2022-08-19T03:18:22;21.20;99.90
12557;DHT22;6344;49.932;8.308;2022-08-19T03:20:51;21.20;99.90
12557;DHT22;6344;49.932;8.308;2022-08-19T03:23:20;21.20;99.90
12557;DHT22;6344;49.932;8.308;2022-08-19T03:25:50;21.10;99.90
12557;DHT22;6344;49.932;8.308;2022-08-19T03:28:17;21.10;99.90
12557;DHT22;6344;49.932;8.308;2022-08-19T03:30:55;21.20;99.90
12557;DHT22;6344;49.932;8.308;2022-08-19T03:33:23;21.20;99.90
12557;DHT22;6344;49.932;8.308;2022-08-19T03:36:03;21.00;99.90
12557;DHT22;6344;49.932;8.308;2022-08-19T03:38:31;21.00;99.90
12557;DHT22;6344;49.932;8.308;2022-08-19T03:41:02;20.90;99.90
12557;DHT22;6344;49.932;8.308;2022-08-19T03:43:32;20.90;99.90
12557;DHT22;6344;49.932;8.308;2022-08-19T03:46:03;20.70;99.90
12557;DHT22;6344;49.932;8.308;2022-08-19T03:48:32;20.70;99.90
12557;DHT22;6344;49.932;8.308;2022-08-19T03:50:59;20.60;99.90
12557;DHT22;6344;49.932;8.308;2022-08-19T03:53:26;20.50;99.90
12557;DHT22;6344;49.932;8.308;2022-08-19T03:55:53;20.50;99.90
12557;DHT22;6344;49.932;8.308;2022-08-19T03:58:22;20.50;99.90
12557;DHT22;6344;49.932;8.308;2022-08-19T04:00:49;20.50;99.90
12557;DHT22;6344;49.932;8.308;2022-08-19T04:03:16;20.50;99.90
12557;DHT22;6344;49.932;8.308;2022-08-19T04:05:44;20.30;99.90
12557;DHT22;6344;49.932;8.308;2022-08-19T04:08:11;20.20;99.90
12557;DHT22;6344;49.932;8.308;2022-08-19T04:10:38;20.20;99.90
12557;DHT22;6344;49.932;8.308;2022-08-19T04:13:05;20.10;1.00
12557;DHT22;6344;49.932;8.308;2022-08-19T04:15:39;20.10;1.00
12557;DHT22;6344;49.932;8.308;2022-08-19T04:18:07;20.10;1.00
12557;DHT22;6344;49.932;8.308;2022-08-19T04:20:42;20.10;1.00
12557;DHT22;6344;49.932;8.308;2022-08-19T04:23:09;20.00;1.00
12557;DHT22;6344;49.932;8.308;2022-08-19T04:25:38;20.10;1.00
12557;DHT22;6344;49.932;8.308;2022-08-19T04:28:05;20.00;1.00
12557;DHT22;6344;49.932;8.308;2022-08-19T04:30:39;20.00;1.00
12557;DHT22;6344;49.932;8.308;2022-08-19T04:33:06;20.00;1.00
12557;DHT22;6344;49.932;8.308;2022-08-19T04:35:36;20.00;1.00
12557;DHT22;6344;49.932;8.308;2022-08-19T04:38:03;20.00;1.00
12557;DHT22;6344;49.932;8.308;2022-08-19T04:40:29;20.00;1.00
12557;DHT22;6344;49.932;8.308;2022-08-19T04:43:14;19.90;1.00
12557;DHT22;6344;49.932;8.308;2022-08-19T04:45:42;19.80;1.00
12557;DHT22;6344;49.932;8.308;2022-08-19T04:48:10;19.80;1.00
12557;DHT22;6344;49.932;8.308;2022-08-19T04:50:40;19.80;1.00
12557;DHT22;6344;49.932;8.308;2022-08-19T04:53:08;19.80;1.00
12557;DHT22;6344;49.932;8.308;2022-08-19T04:55:37;19.80;1.00
12557;DHT22;6344;49.932;8.308;2022-08-19T04:58:04;19.90;1.00
12557;DHT22;6344;49.932;8.308;2022-08-19T05:00:32;19.90;1.00
12557;DHT22;6344;49.932;8.308;2022-08-19T05:03:00;20.00;1.00
12557;DHT22;6344;49.932;8.308;2022-08-19T05:05:27;20.10;1.00
12557;DHT22;6344;49.932;8.308;2022-08-19T05:07:54;20.30;1.00
12557;DHT22;6344;49.932;8.308;2022-08-19T05:10:21;20.30;1.00
12557;DHT22;6344;49.932;8.308;2022-08-19T05:12:48;20.40;1.00
12557;DHT22;6344;49.932;8.308;2022-08-19T05:15:15;20.40;1.00
12557;DHT22;6344;49.932;8.308;2022-08-19T05:17:41;20.50;1.00
12557;DHT22;6344;49.932;8.308;2022-08-19T05:20:29;20.60;1.00
12557;DHT22;6344;49.932;8.308;2022-08-19T05:23:10;20.60;99.90
12557;DHT22;6344;49.932;8.308;2022-08-19T05:25:41;20.70;99.90
12557;DHT22;6344;49.932;8.308;2022-08-19T05:28:08;20.80;99.90
12557;DHT22;6344;49.932;8.308;2022-08-19T05:30:35;20.90;99.90
12557;DHT22;6344;49.932;8.308;2022-08-19T05:33:01;21.00;99.90
12557;DHT22;6344;49.932;8.308;2022-08-19T05:35:29;21.00;99.90
12557;DHT22;6344;49.932;8.308;2022-08-19T05:37:56;21.10;99.90
12557;DHT22;6344;49.932;8.308;2022-08-19T05:40:23;21.20;99.90
12557;DHT22;6344;49.932;8.308;2022-08-19T05:42:49;21.20;99.90
12557;DHT22;6344;49.932;8.308;2022-08-19T05:45:17;21.40;99.90
12557;DHT22;6344;49.932;8.308;2022-08-19T05:47:43;21.40;99.90
12557;DHT22;6344;49.932;8.308;2022-08-19T05:50:10;21.40;99.90
12557;DHT22;6344;49.932;8.308;2022-08-19T05:52:39;21.50;99.90
12557;DHT22;6344;49.932;8.308;2022-08-19T05:55:06;21.60;99.90
12557;DHT22;6344;49.932;8.308;2022-08-19T05:57:33;21.60;99.90
12557;DHT22;6344;49.932;8.308;2022-08-19T06:00:00;21.50;99.90
12557;DHT22;6344;49.932;8.308;2022-08-19T06:02:29;21.60;99.90
12557;DHT22;6344;49.932;8.308;2022-08-19T06:04:56;21.70;99.90
12557;DHT22;6344;49.932;8.308;2022-08-19T06:07:23;21.70;99.90
12557;DHT22;6344;49.932;8.308;2022-08-19T06:09:51;21.90;99.90
12557;DHT22;6344;49.932;8.308;2022-08-19T06:12:18;22.00;99.90
12557;DHT22;6344;49.932;8.308;2022-08-19T06:14:44;22.00;99.90
12557;DHT22;6344;49.932;8.308;2022-08-19T06:17:11;22.00;99.90
12557;DHT22;6344;49.932;8.308;2022-08-19T06:19:38;22.20;99.90
12557;DHT22;6344;49.932;8.308;2022-08-19T06:22:06;22.20;99.90
12557;DHT22;6344;49.932;8.308;2022-08-19T06:24:33;22.20;99.90
12557;DHT22;6344;49.932;8.308;2022-08-19T06:27:03;22.30;99.90
12557;DHT22;6344;49.932;8.308;2022-08-19T06:29:30;22.40;99.90
12557;DHT22;6344;49.932;8.308;2022-08-19T06:31:59;22.40;99.90
12557;DHT22;6344;49.932;8.308;2022-08-19T06:34:27;22.50;99.90
12557;DHT22;6344;49.932;8.308;2022-08-19T06:36:55;22.40;99.90
12557;DHT22;6344;49.932;8.308;2022-08-19T06:39:27;22.50;99.90
12557;DHT22;6344;49.932;8.308;2022-08-19T06:41:56;22.40;99.90
12557;DHT22;6344;49.932;8.308;2022-08-19T06:44:26;22.50;99.90
12557;DHT22;6344;49.932;8.308;2022-08-19T06:46:53;22.40;99.90
12557;DHT22;6344;49.932;8.308;2022-08-19T06:49:21;22.40;99.90
12557;DHT22;6344;49.932;8.308;2022-08-19T06:51:48;22.50;99.90
12557;DHT22;6344;49.932;8.308;2022-08-19T06:54:16;22.60;99.90
12557;DHT22;6344;49.932;8.308;2022-08-19T06:56:43;22.60;99.90
12557;DHT22;6344;49.932;8.308;2022-08-19T06:59:12;22.80;99.90
12557;DHT22;6344;49.932;8.308;2022-08-19T07:01:43;23.00;99.90
12557;DHT22;6344;49.932;8.308;2022-08-19T07:04:12;23.20;99.90
12557;DHT22;6344;49.932;8.308;2022-08-19T07:06:39;23.80;99.90
12557;DHT22;6344;49.932;8.308;2022-08-19T07:09:08;23.80;99.90
12557;DHT22;6344;49.932;8.308;2022-08-19T07:11:35;24.10;99.90
12557;DHT22;6344;49.932;8.308;2022-08-19T07:14:03;24.50;90.40
12557;DHT22;6344;49.932;8.308;2022-08-19T07:16:32;24.30;91.50
12557;DHT22;6344;49.932;8.308;2022-08-19T07:19:00;25.00;67.90
12557;DHT22;6344;49.932;8.308;2022-08-19T07:21:28;25.30;48.80
12557;DHT22;6344;49.932;8.308;2022-08-19T07:23:55;25.10;44.10
12557;DHT22;6344;49.932;8.308;2022-08-19T07:26:28;25.00;43.40
12557;DHT22;6344;49.932;8.308;2022-08-19T07:28:57;25.30;42.60
12557;DHT22;6344;49.932;8.308;2022-08-19T07:31:26;25.50;36.70
12557;DHT22;6344;49.932;8.308;2022-08-19T07:33:54;25.80;27.50
12557;DHT22;6344;49.932;8.308;2022-08-19T07:36:27;25.70;21.30
12557;DHT22;6344;49.932;8.308;2022-08-19T07:38:56;25.60;19.90
12557;DHT22;6344;49.932;8.308;2022-08-19T07:41:26;26.20;16.40
12557;DHT22;6344;49.932;8.308;2022-08-19T07:43:54;25.70;11.00
12557;DHT22;6344;49.932;8.308;2022-08-19T07:46:21;25.50;8.80
12557;DHT22;6344;49.932;8.308;2022-08-19T07:48:49;25.80;17.00
12557;DHT22;6344;49.932;8.308;2022-08-19T07:51:18;25.30;6.40
12557;DHT22;6344;49.932;8.308;2022-08-19T07:53:47;25.30;7.40
12557;DHT22;6344;49.932;8.308;2022-08-19T07:56:16;25.60;6.70
12557;DHT22;6344;49.932;8.308;2022-08-19T07:58:44;25.80;4.40
12557;DHT22;6344;49.932;8.308;2022-08-19T08:01:13;26.00;3.00
12557;DHT22;6344;49.932;8.308;2022-08-19T08:03:41;26.20;1.10
12557;DHT22;6344;49.932;8.308;2022-08-19T08:06:26;25.80;1.00
12557;DHT22;6344;49.932;8.308;2022-08-19T08:09:12;26.20;1.00
12557;DHT22;6344;49.932;8.308;2022-08-19T08:11:49;26.20;1.00
12557;DHT22;6344;49.932;8.308;2022-08-19T08:14:18;26.80;1.00
12557;DHT22;6344;49.932;8.308;2022-08-19T08:16:46;26.90;1.00
12557;DHT22;6344;49.932;8.308;2022-08-19T08:19:14;26.80;1.00
12557;DHT22;6344;49.932;8.308;2022-08-19T08:21:41;26.40;1.00
12557;DHT22;6344;49.932;8.308;2022-08-19T08:24:08;26.20;1.00
12557;DHT22;6344;49.932;8.308;2022-08-19T08:26:36;27.00;1.00
12557;DHT22;6344;49.932;8.308;2022-08-19T08:29:03;27.10;1.00
12557;DHT22;6344;49.932;8.308;2022-08-19T08:31:30;27.20;1.00
12557;DHT22;6344;49.932;8.308;2022-08-19T08:33:57;27.20;1.00
12557;DHT22;6344;49.932;8.308;2022-08-19T08:36:24;28.20;1.00
12557;DHT22;6344;49.932;8.308;2022-08-19T08:38:51;27.90;1.00
12557;DHT22;6344;49.932;8.308;2022-08-19T08:41:22;28.20;1.00
12557;DHT22;6344;49.932;8.308;2022-08-19T08:43:55;29.00;1.00
12557;DHT22;6344;49.932;8.308;2022-08-19T08:46:27;29.30;1.00
12557;DHT22;6344;49.932;8.308;2022-08-19T08:48:59;29.30;1.00
12557;DHT22;6344;49.932;8.308;2022-08-19T08:51:33;29.30;1.00
12557;DHT22;6344;49.932;8.308;2022-08-19T08:54:02;29.80;1.00
12557;DHT22;6344;49.932;8.308;2022-08-19T08:56:29;29.60;1.00
12557;DHT22;6344;49.932;8.308;2022-08-19T08:59:02;28.60;1.00
12557;DHT22;6344;49.932;8.308;2022-08-19T09:01:33;27.80;1.00
12557;DHT22;6344;49.932;8.308;2022-08-19T09:04:03;27.10;1.00
12557;DHT22;6344;49.932;8.308;2022-08-19T09:06:37;27.20;1.00
12557;DHT22;6344;49.932;8.308;2022-08-19T09:09:13;27.60;1.00
12557;DHT22;6344;49.932;8.308;2022-08-19T09:11:52;28.30;1.00
12557;DHT22;6344;49.932;8.308;2022-08-19T09:14:34;28.80;1.00
12557;DHT22;6344;49.932;8.308;2022-08-19T09:17:01;29.20;1.00
12557;DHT22;6344;49.932;8.308;2022-08-19T09:19:29;28.70;1.00
12557;DHT22;6344;49.932;8.308;2022-08-19T09:21:56;28.60;1.00
12557;DHT22;6344;49.932;8.308;2022-08-19T09:24:26;28.50;1.00
12557;DHT22;6344;49.932;8.308;2022-08-19T09:26:52;28.40;1.00
12557;DHT22;6344;49.932;8.308;2022-08-19T09:29:19;28.10;1.00
12557;DHT22;6344;49.932;8.308;2022-08-19T09:31:48;28.60;1.00
12557;DHT22;6344;49.932;8.308;2022-08-19T09:34:15;28.40;1.00
12557;DHT22;6344;49.932;8.308;2022-08-19T09:36:41;29.20;1.00
12557;DHT22;6344;49.932;8.308;2022-08-19T09:39:08;30.10;1.00
12557;DHT22;6344;49.932;8.308;2022-08-19T09:41:35;28.80;1.00
12557;DHT22;6344;49.932;8.308;2022-08-19T09:44:02;29.70;1.00
12557;DHT22;6344;49.932;8.308;2022-08-19T09:46:29;29.50;1.00
12557;DHT22;6344;49.932;8.308;2022-08-19T09:48:59;29.30;1.00
12557;DHT22;6344;49.932;8.308;2022-08-19T09:51:27;29.70;1.00
12557;DHT22;6344;49.932;8.308;2022-08-19T09:53:58;29.40;1.00
12557;DHT22;6344;49.932;8.308;2022-08-19T09:56:26;29.90;1.00
12557;DHT22;6344;49.932;8.308;2022-08-19T09:58:52;29.50;1.00
12557;DHT22;6344;49.932;8.308;2022-08-19T10:01:22;30.40;1.00
12557;DHT22;6344;49.932;8.308;2022-08-19T10:03:50;30.20;1.00
12557;DHT22;6344;49.932;8.308;2022-08-19T10:06:20;29.00;1.00
12557;DHT22;6344;49.932;8.308;2022-08-19T10:08:47;28.80;1.00
12557;DHT22;6344;49.932;8.308;2022-08-19T10:11:15;29.80;1.00
12557;DHT22;6344;49.932;8.308;2022-08-19T10:13:43;29.60;1.00
12557;DHT22;6344;49.932;8.308;2022-08-19T10:16:12;29.70;1.00
12557;DHT22;6344;49.932;8.308;2022-08-19T10:18:39;30.40;1.00
12557;DHT22;6344;49.932;8.308;2022-08-19T10:21:10;30.70;1.00
12557;DHT22;6344;49.932;8.308;2022-08-19T10:23:40;30.80;1.00
12557;DHT22;6344;49.932;8.308;2022-08-19T10:26:09;30.70;1.00
12557;DHT22;6344;49.932;8.308;2022-08-19T10:28:37;30.60;1.00
12557;DHT22;6344;49.932;8.308;2022-08-19T10:31:05;30.50;1.00
12557;DHT22;6344;49.932;8.308;2022-08-19T10:33:32;30.20;1.00
12557;DHT22;6344;49.932;8.308;2022-08-19T10:36:00;30.80;1.00
12557;DHT22;6344;49.932;8.308;2022-08-19T10:38:27;31.50;1.00
12557;DHT22;6344;49.932;8.308;2022-08-19T10:40:56;31.40;1.00
12557;DHT22;6344;49.932;8.308;2022-08-19T10:43:23;30.90;1.00
12557;DHT22;6344;49.932;8.308;2022-08-19T10:45:54;30.40;1.00
12557;DHT22;6344;49.932;8.308;2022-08-19T10:48:23;30.20;1.00
12557;DHT22;6344;49.932;8.308;2022-08-19T10:50:50;31.20;1.00
12557;DHT22;6344;49.932;8.308;2022-08-19T10:53:35;31.60;1.00
12557;DHT22;6344;49.932;8.308;2022-08-19T10:56:03;30.30;1.00
12557;DHT22;6344;49.932;8.308;2022-08-19T10:58:47;30.20;1.00
12557;DHT22;6344;49.932;8.308;2022-08-19T11:01:14;31.00;1.00
12557;DHT22;6344;49.932;8.308;2022-08-19T11:03:41;31.50;1.00
12557;DHT22;6344;49.932;8.308;2022-08-19T11:06:11;31.30;1.00
12557;DHT22;6344;49.932;8.308;2022-08-19T11:08:38;31.80;1.00
12557;DHT22;6344;49.932;8.308;2022-08-19T11:11:07;32.20;1.00
12557;DHT22;6344;49.932;8.308;2022-08-19T11:13:36;31.80;1.00
12557;DHT22;6344;49.932;8.308;2022-08-19T11:16:06;30.90;1.00
12557;DHT22;6344;49.932;8.308;2022-08-19T11:18:34;29.90;1.00
12557;DHT22;6344;49.932;8.308;2022-08-19T11:21:08;29.40;1.00
12557;DHT22;6344;49.932;8.308;2022-08-19T11:23:35;30.00;1.00
12557;DHT22;6344;49.932;8.308;2022-08-19T11:26:03;31.40;1.00
12557;DHT22;6344;49.932;8.308;2022-08-19T11:28:31;31.10;1.00
12557;DHT22;6344;49.932;8.308;2022-08-19T11:30:58;32.20;1.00
12557;DHT22;6344;49.932;8.308;2022-08-19T11:33:25;32.30;1.00
12557;DHT22;6344;49.932;8.308;2022-08-19T11:35:52;31.90;1.00
12557;DHT22;6344;49.932;8.308;2022-08-19T11:38:19;32.10;1.00
12557;DHT22;6344;49.932;8.308;2022-08-19T11:40:54;33.00;1.00
12557;DHT22;6344;49.932;8.308;2022-08-19T11:43:21;32.90;1.00
12557;DHT22;6344;49.932;8.308;2022-08-19T11:45:49;33.90;1.00
12557;DHT22;6344;49.932;8.308;2022-08-19T11:48:16;33.30;1.00
12557;DHT22;6344;49.932;8.308;2022-08-19T11:50:47;32.70;1.00
12557;DHT22;6344;49.932;8.308;2022-08-19T11:53:15;32.20;1.00
12557;DHT22;6344;49.932;8.308;2022-08-19T11:55:41;32.00;1.00
12557;DHT22;6344;49.932;8.308;2022-08-19T11:58:10;32.40;1.00
12557;DHT22;6344;49.932;8.308;2022-08-19T12:00:38;32.70;1.00
12557;DHT22;6344;49.932;8.308;2022-08-19T12:03:06;32.40;1.00
12557;DHT22;6344;49.932;8.308;2022-08-19T12:05:35;32.60;1.00
12557;DHT22;6344;49.932;8.308;2022-08-19T12:08:02;32.60;1.00
12557;DHT22;6344;49.932;8.308;2022-08-19T12:10:29;33.90;1.00
12557;DHT22;6344;49.932;8.308;2022-08-19T12:12:56;33.70;1.00
12557;DHT22;6344;49.932;8.308;2022-08-19T12:15:23;33.30;1.00
12557;DHT22;6344;49.932;8.308;2022-08-19T12:17:49;33.30;1.00
12557;DHT22;6344;49.932;8.308;2022-08-19T12:20:18;33.00;1.00
12557;DHT22;6344;49.932;8.308;2022-08-19T12:22:45;32.00;1.00
12557;DHT22;6344;49.932;8.308;2022-08-19T12:25:13;32.80;1.00
12557;DHT22;6344;49.932;8.308;2022-08-19T12:27:40;33.90;1.00
12557;DHT22;6344;49.932;8.308;2022-08-19T12:30:11;33.50;1.00
12557;DHT22;6344;49.932;8.308;2022-08-19T12:32:39;32.60;1.00
12557;DHT22;6344;49.932;8.308;2022-08-19T12:35:07;32.80;1.00
12557;DHT22;6344;49.932;8.308;2022-08-19T12:37:36;33.10;1.00
12557;DHT22;6344;49.932;8.308;2022-08-19T12:40:03;33.70;1.00
12557;DHT22;6344;49.932;8.308;2022-08-19T12:42:30;34.70;1.00
12557;DHT22;6344;49.932;8.308;2022-08-19T12:44:57;34.40;1.00
12557;DHT22;6344;49.932;8.308;2022-08-19T12:47:24;33.10;1.00
12557;DHT22;6344;49.932;8.308;2022-08-19T12:49:51;32.30;1.00
12557;DHT22;6344;49.932;8.308;2022-08-19T12:52:18;31.10;1.00
12557;DHT22;6344;49.932;8.308;2022-08-19T12:54:47;31.10;1.00
12557;DHT22;6344;49.932;8.308;2022-08-19T12:57:15;32.60;1.00
12557;DHT22;6344;49.932;8.308;2022-08-19T12:59:41;32.50;1.00
12557;DHT22;6344;49.932;8.308;2022-08-19T13:02:11;31.70;1.00
12557;DHT22;6344;49.932;8.308;2022-08-19T13:04:38;31.10;1.00
12557;DHT22;6344;49.932;8.308;2022-08-19T13:07:06;30.60;1.00
12557;DHT22;6344;49.932;8.308;2022-08-19T13:09:34;30.80;1.00
12557;DHT22;6344;49.932;8.308;2022-08-19T13:12:03;30.70;1.00
12557;DHT22;6344;49.932;8.308;2022-08-19T13:14:33;30.10;1.00
12557;DHT22;6344;49.932;8.308;2022-08-19T13:17:00;29.50;1.00
12557;DHT22;6344;49.932;8.308;2022-08-19T13:19:27;29.50;1.00
12557;DHT22;6344;49.932;8.308;2022-08-19T13:21:55;29.70;1.00
12557;DHT22;6344;49.932;8.308;2022-08-19T13:24:23;30.90;1.00
12557;DHT22;6344;49.932;8.308;2022-08-19T13:26:49;32.30;1.00
12557;DHT22;6344;49.932;8.308;2022-08-19T13:29:17;32.10;1.00
12557;DHT22;6344;49.932;8.308;2022-08-19T13:32:02;31.60;1.00
12557;DHT22;6344;49.932;8.308;2022-08-19T13:34:46;31.10;1.00
12557;DHT22;6344;49.932;8.308;2022-08-19T13:37:13;30.60;1.00
12557;DHT22;6344;49.932;8.308;2022-08-19T13:39:40;29.60;1.00
12557;DHT22;6344;49.932;8.308;2022-08-19T13:42:06;29.50;1.00
12557;DHT22;6344;49.932;8.308;2022-08-19T13:44:37;29.60;1.00
12557;DHT22;6344;49.932;8.308;2022-08-19T13:47:05;30.60;1.00
12557;DHT22;6344;49.932;8.308;2022-08-19T13:49:32;31.90;1.00
12557;DHT22;6344;49.932;8.308;2022-08-19T13:52:00;33.50;1.00
12557;DHT22;6344;49.932;8.308;2022-08-19T13:54:26;33.00;1.00
12557;DHT22;6344;49.932;8.308;2022-08-19T13:56:53;31.70;1.00
12557;DHT22;6344;49.932;8.308;2022-08-19T13:59:20;31.70;1.00
12557;DHT22;6344;49.932;8.308;2022-08-19T14:01:51;30.70;1.00
12557;DHT22;6344;49.932;8.308;2022-08-19T14:04:18;30.70;1.00
12557;DHT22;6344;49.932;8.308;2022-08-19T14:06:45;31.40;1.00
12557;DHT22;6344;49.932;8.308;2022-08-19T14:09:12;32.00;1.00
12557;DHT22;6344;49.932;8.308;2022-08-19T14:11:38;31.20;1.00
12557;DHT22;6344;49.932;8.308;2022-08-19T14:14:05;32.50;1.00
12557;DHT22;6344;49.932;8.308;2022-08-19T14:16:32;34.10;1.00
12557;DHT22;6344;49.932;8.308;2022-08-19T14:19:00;33.70;1.00
12557;DHT22;6344;49.932;8.308;2022-08-19T14:21:26;34.20;1.00
12557;DHT22;6344;49.932;8.308;2022-08-19T14:23:53;34.60;1.00
12557;DHT22;6344;49.932;8.308;2022-08-19T14:26:21;34.40;1.00
12557;DHT22;6344;49.932;8.308;2022-08-19T14:28:48;34.00;1.00
12557;DHT22;6344;49.932;8.308;2022-08-19T14:31:16;33.80;1.00
12557;DHT22;6344;49.932;8.308;2022-08-19T14:33:45;33.70;1.00
12557;DHT22;6344;49.932;8.308;2022-08-19T14:36:13;33.90;1.00
12557;DHT22;6344;49.932;8.308;2022-08-19T14:38:40;33.10;1.00
12557;DHT22;6344;49.932;8.308;2022-08-19T14:41:10;32.50;1.00
12557;DHT22;6344;49.932;8.308;2022-08-19T14:43:38;31.30;1.00
12557;DHT22;6344;49.932;8.308;2022-08-19T14:46:06;31.30;1.00
12557;DHT22;6344;49.932;8.308;2022-08-19T14:48:33;31.10;1.00
12557;DHT22;6344;49.932;8.308;2022-08-19T14:51:01;31.40;1.00
12557;DHT22;6344;49.932;8.308;2022-08-19T14:53:29;30.50;1.00
12557;DHT22;6344;49.932;8.308;2022-08-19T14:55:57;30.50;1.00
12557;DHT22;6344;49.932;8.308;2022-08-19T14:58:24;30.80;1.00
12557;DHT22;6344;49.932;8.308;2022-08-19T15:00:51;31.70;1.00
12557;DHT22;6344;49.932;8.308;2022-08-19T15:03:18;31.80;1.00
12557;DHT22;6344;49.932;8.308;2022-08-19T15:05:45;32.30;1.00
12557;DHT22;6344;49.932;8.308;2022-08-19T15:08:12;32.20;1.00
12557;DHT22;6344;49.932;8.308;2022-08-19T15:10:40;32.60;1.00
12557;DHT22;6344;49.932;8.308;2022-08-19T15:13:06;33.20;99.90
12557;DHT22;6344;49.932;8.308;2022-08-19T15:15:33;33.50;1.00
12557;DHT22;6344;49.932;8.308;2022-08-19T15:18:03;32.80;1.00
12557;DHT22;6344;49.932;8.308;2022-08-19T15:20:30;31.70;1.00
12557;DHT22;6344;49.932;8.308;2022-08-19T15:37:14;32.70;1.00
12557;DHT22;6344;49.932;8.308;2022-08-19T15:39:58;33.10;1.00
12557;DHT22;6344;49.932;8.308;2022-08-19T15:42:25;32.90;1.00
12557;DHT22;6344;49.932;8.308;2022-08-19T15:48:14;33.10;1.00
12557;DHT22;6344;49.932;8.308;2022-08-19T15:54:06;32.30;1.00
12557;DHT22;6344;49.932;8.308;2022-08-19T15:56:33;32.00;1.00
12557;DHT22;6344;49.932;8.308;2022-08-19T15:59:26;32.60;99.90
12557;DHT22;6344;49.932;8.308;2022-08-19T16:02:13;31.90;1.00
12557;DHT22;6344;49.932;8.308;2022-08-19T16:04:57;31.80;1.00
12557;DHT22;6344;49.932;8.308;2022-08-19T16:07:41;31.00;99.90
12557;DHT22;6344;49.932;8.308;2022-08-19T16:10:10;30.50;1.00
12557;DHT22;6344;49.932;8.308;2022-08-19T16:12:38;30.10;1.00
12557;DHT22;6344;49.932;8.308;2022-08-19T16:15:06;29.90;1.00
12557;DHT22;6344;49.932;8.308;2022-08-19T16:17:33;30.30;1.00
12557;DHT22;6344;49.932;8.308;2022-08-19T16:20:00;30.40;1.00
12557;DHT22;6344;49.932;8.308;2022-08-19T16:22:29;30.20;1.00
12557;DHT22;6344;49.932;8.308;2022-08-19T16:24:56;30.60;1.00
12557;DHT22;6344;49.932;8.308;2022-08-19T16:27:24;30.40;1.00